ヌーク の空港の天気 - METARとTAF

ヌーク空港 ( BGGH / GOH ) - グリーンランド ヌーク
飛行場実況気象(Metar)
観測時間07/22 15:50 WGST (07/22 17:50 UTC)
風向・風速北北東 4m/s
視程10km以上
天気現象
少しの雲 雲底高度 300m
気温10℃
湿度76%
気圧1016hPa
METARBGGH 221750Z 02007KT 350V060 9999 FEW010 10/06 Q1016
過去の天気等 Google飛行場航空写真 Wunderground天気予報

過去48時間のMETAR

飛行場予報(TAF)
発表時間: 7/22 15:30 WGST (7/22 17:30 UTC)
予報対象時間: 22日16時 WGST ~ 22日23時 WGST
風向・風速北 4m/s
視程10km以上
少しの雲 雲底高度 150m
TAF BGGH 221730Z 2218/2301 01008KT 9999 FEW005